Time;durP1;ratioP1;P1;durP2;ratioP2;P2;SDS_P1;SDS_P2;PMS_P1;PMS_P2;Temp;Humidity;BMP_temperature;BMP_pressure;BME280_temperature;BME280_humidity;BME280_pressure;Samples;Min_cycle;Max_cycle;Signal;HPM_P1;HPM_P2
2022/03/28 00:00:14;;;;;;;28.30;14.60;;;8.50;99.90;;;;;;5008071;28;20709;-74
2022/03/28 00:02:44;;;;;;;26.00;13.80;;;8.40;99.90;;;;;;5008962;28;20443;-74
2022/03/28 00:05:13;;;;;;;22.70;12.33;;;8.30;99.90;;;;;;5010496;28;20203;-74
2022/03/28 00:07:42;;;;;;;26.27;13.53;;;8.30;99.90;;;;;;5010998;28;20233;-75
2022/03/28 00:10:09;;;;;;;28.27;13.57;;;8.30;99.90;;;;;;5008663;28;20217;-76
2022/03/28 00:12:38;;;;;;;25.60;13.80;;;8.20;99.90;;;;;;5010230;28;20211;-75
2022/03/28 00:15:06;;;;;;;26.97;14.27;;;8.20;99.90;;;;;;5007338;28;20229;-76
2022/03/28 00:17:33;;;;;;;26.00;13.63;;;8.20;99.90;;;;;;5008733;28;20220;-76
2022/03/28 00:20:00;;;;;;;27.03;14.07;;;8.20;99.90;;;;;;5009166;28;20233;-76
2022/03/28 00:22:28;;;;;;;30.40;14.53;;;8.10;99.90;;;;;;5009301;28;20237;-76
2022/03/28 00:24:56;;;;;;;32.10;14.80;;;8.10;99.90;;;;;;5010597;28;20296;-74
2022/03/28 00:27:23;;;;;;;27.70;13.73;;;8.00;99.90;;;;;;5009945;28;20221;-74
2022/03/28 00:29:50;;;;;;;27.70;13.93;;;8.00;99.90;;;;;;5025567;28;20245;-77
2022/03/28 00:32:17;;;;;;;24.57;13.13;;;7.90;99.90;;;;;;5024735;28;20221;-77
2022/03/28 00:34:44;;;;;;;30.20;13.97;;;7.90;99.90;;;;;;5009676;28;20214;-76
2022/03/28 00:37:11;;;;;;;25.57;13.03;;;7.90;99.90;;;;;;5013568;28;20214;-79
2022/03/28 00:39:38;;;;;;;28.97;14.17;;;7.80;99.90;;;;;;5015436;28;20233;-76
2022/03/28 00:42:07;;;;;;;27.50;14.47;;;7.80;99.90;;;;;;5014473;28;20238;-78
2022/03/28 00:44:34;;;;;;;25.90;13.37;;;7.80;99.90;;;;;;5016201;28;20217;-76
2022/03/28 00:47:01;;;;;;;29.15;14.90;;;7.80;99.90;;;;;;5009679;28;20215;-77
2022/03/28 00:49:28;;;;;;;29.70;14.67;;;9.20;99.90;;;;;;5008876;28;20332;-74
2022/03/28 00:51:56;;;;;;;27.43;13.93;;;7.70;99.90;;;;;;5009843;28;20202;-78
2022/03/28 00:54:23;;;;;;;27.13;14.10;;;7.70;99.90;;;;;;5014309;28;20217;-77
2022/03/28 00:56:50;;;;;;;27.17;14.67;;;7.70;99.90;;;;;;5009317;28;20217;-77
2022/03/28 00:59:19;;;;;;;28.37;15.03;;;7.60;99.90;;;;;;5008885;28;20229;-78
2022/03/28 01:01:46;;;;;;;27.30;13.83;;;7.60;99.90;;;;;;5013095;28;20299;-76
2022/03/28 01:04:13;;;;;;;27.60;13.97;;;7.60;99.90;;;;;;5009986;28;20218;-76
2022/03/28 01:06:40;;;;;;;29.67;15.27;;;7.50;99.90;;;;;;5008771;28;20210;-76
2022/03/28 01:09:07;;;;;;;24.13;13.13;;;7.50;99.90;;;;;;5009079;28;20226;-78
2022/03/28 01:11:35;;;;;;;25.93;13.13;;;7.50;99.90;;;;;;5003553;28;20213;-76
2022/03/28 01:14:02;;;;;;;29.13;14.50;;;7.50;99.90;;;;;;5007484;28;20217;-77
2022/03/28 01:16:30;;;;;;;25.00;12.77;;;7.50;99.90;;;;;;5007912;28;20211;-75
2022/03/28 01:18:56;;;;;;;31.27;14.40;;;7.40;99.90;;;;;;5023336;28;20260;-76
2022/03/28 01:21:25;;;;;;;27.87;14.20;;;7.40;99.90;;;;;;5007820;28;20718;-75
2022/03/28 01:23:52;;;;;;;28.23;14.33;;;7.30;99.90;;;;;;5007903;28;20717;-75
2022/03/28 01:26:20;;;;;;;29.90;14.17;;;7.30;99.90;;;;;;5005912;28;20300;-75
2022/03/28 01:28:47;;;;;;;28.83;14.83;;;7.30;99.90;;;;;;5008670;28;20225;-75
2022/03/28 01:31:13;;;;;;;30.93;15.27;;;7.30;99.90;;;;;;5007989;28;20481;-75
2022/03/28 01:33:40;;;;;;;27.30;14.87;;;7.30;99.90;;;;;;5008557;28;20302;-75
2022/03/28 01:36:07;;;;;;;28.23;14.50;;;7.20;99.90;;;;;;5007864;28;20584;-75
2022/03/28 01:38:37;;;;;;;29.73;13.97;;;7.20;99.90;;;;;;5007297;28;21324;-77
2022/03/28 01:41:03;;;;;;;32.17;15.17;;;7.20;99.90;;;;;;5006137;28;20218;-75
2022/03/28 01:43:30;;;;;;;29.33;14.83;;;7.20;99.90;;;;;;5006040;28;20945;-76
2022/03/28 01:45:57;;;;;;;30.90;14.97;;;7.20;99.90;;;;;;5006734;28;20593;-75
2022/03/28 01:48:24;;;;;;;32.67;14.43;;;7.20;99.90;;;;;;5006969;28;20231;-76
2022/03/28 01:50:51;;;;;;;30.57;15.20;;;7.10;99.90;;;;;;5010756;28;20319;-74
2022/03/28 01:53:18;;;;;;;28.80;14.67;;;7.10;99.90;;;;;;5010530;28;20225;-75
2022/03/28 01:55:46;;;;;;;31.87;15.30;;;7.00;99.90;;;;;;5007746;28;20207;-75
2022/03/28 01:58:13;;;;;;;30.60;14.90;;;7.00;99.90;;;;;;5012659;28;20233;-75
2022/03/28 02:00:40;;;;;;;32.87;15.70;;;7.00;99.90;;;;;;5007062;28;20229;-75
2022/03/28 02:03:07;;;;;;;29.97;14.57;;;6.90;99.90;;;;;;5007564;28;20249;-75
2022/03/28 02:05:34;;;;;;;33.33;15.10;;;6.90;99.90;;;;;;5008026;28;20217;-75
2022/03/28 02:08:02;;;;;;;34.13;15.33;;;6.90;99.90;;;;;;5005894;28;20237;-76
2022/03/28 02:10:28;;;;;;;30.57;14.97;;;6.90;99.90;;;;;;5007843;28;20315;-75
2022/03/28 02:12:57;;;;;;;32.17;15.00;;;6.80;99.90;;;;;;5007622;28;20216;-76
2022/03/28 02:15:24;;;;;;;35.13;14.93;;;6.70;99.90;;;;;;5006957;28;20216;-76
2022/03/28 02:17:51;;;;;;;32.20;15.80;;;6.70;99.90;;;;;;5020920;28;20230;-75
2022/03/28 02:20:19;;;;;;;30.53;15.73;;;6.70;99.90;;;;;;5006270;28;20218;-76
2022/03/28 02:22:47;;;;;;;35.13;14.77;;;6.60;99.90;;;;;;5007475;28;20909;-76
2022/03/28 02:25:15;;;;;;;34.10;14.83;;;6.60;99.90;;;;;;5007207;28;20210;-76
2022/03/28 02:27:43;;;;;;;36.00;16.57;;;6.60;99.90;;;;;;5007957;28;20313;-76
2022/03/28 02:30:13;;;;;;;29.43;15.00;;;6.50;99.90;;;;;;5004112;28;20206;-75
2022/03/28 02:32:40;;;;;;;33.25;15.45;;;6.50;99.90;;;;;;5001700;28;20218;-75
2022/03/28 02:35:08;;;;;;;32.40;16.43;;;6.50;99.90;;;;;;5002409;28;20405;-77
2022/03/28 02:37:35;;;;;;;38.07;15.97;;;6.50;99.90;;;;;;5001998;28;20229;-77
2022/03/28 02:40:03;;;;;;;32.00;14.93;;;6.50;99.90;;;;;;5002123;28;20613;-76
2022/03/28 02:42:30;;;;;;;37.00;15.80;;;6.50;99.90;;;;;;5002220;28;20236;-76
2022/03/28 02:44:57;;;;;;;30.23;14.83;;;6.50;99.90;;;;;;5001946;28;20207;-76
2022/03/28 02:47:27;;;;;;;32.27;14.90;;;6.50;99.90;;;;;;5001956;28;20226;-76
2022/03/28 02:49:54;;;;;;;38.80;16.57;;;6.50;99.90;;;;;;5003811;28;20217;-76
2022/03/28 02:52:21;;;;;;;33.43;16.40;;;6.50;99.90;;;;;;5003574;28;20632;-76
2022/03/28 02:54:47;;;;;;;31.83;15.67;;;6.40;99.90;;;;;;5002615;28;20210;-78
2022/03/28 02:57:15;;;;;;;34.47;15.77;;;6.40;99.90;;;;;;5003691;28;20218;-76
2022/03/28 02:59:42;;;;;;;37.20;17.10;;;6.30;99.90;;;;;;5019696;28;20355;-76
2022/03/28 03:02:09;;;;;;;32.53;15.67;;;6.30;99.90;;;;;;5007723;28;20316;-76
2022/03/28 03:04:38;;;;;;;35.97;15.83;;;6.30;99.90;;;;;;5005902;28;21664;-76
2022/03/28 03:07:05;;;;;;;33.40;15.43;;;6.30;99.90;;;;;;5006769;28;20280;-75
2022/03/28 03:09:32;;;;;;;34.17;15.00;;;6.30;99.90;;;;;;5007136;28;20299;-75
2022/03/28 03:11:59;;;;;;;33.40;15.67;;;6.30;99.90;;;;;;5005217;28;20209;-74
2022/03/28 03:14:27;;;;;;;32.23;16.30;;;6.30;99.90;;;;;;5006281;28;20290;-75
2022/03/28 03:16:54;;;;;;;35.83;15.43;;;6.30;99.90;;;;;;5020395;28;20211;-75
2022/03/28 03:19:21;;;;;;;35.77;16.93;;;6.30;99.90;;;;;;5006340;28;20230;-75
2022/03/28 03:21:49;;;;;;;42.33;17.20;;;6.20;99.90;;;;;;5006979;28;20225;-76
2022/03/28 03:24:16;;;;;;;34.30;17.03;;;6.20;99.90;;;;;;5007218;28;21176;-76
2022/03/28 03:26:43;;;;;;;35.27;16.63;;;6.20;99.90;;;;;;5010184;28;20213;-77
2022/03/28 03:29:11;;;;;;;37.57;16.37;;;6.20;99.90;;;;;;5012882;28;20629;-78
2022/03/28 03:31:39;;;;;;;36.00;16.43;;;6.20;99.90;;;;;;5017721;28;21236;-78
2022/03/28 03:34:06;;;;;;;30.00;15.33;;;6.10;99.90;;;;;;5020052;28;20206;-75
2022/03/28 03:36:33;;;;;;;34.67;16.20;;;6.10;99.90;;;;;;5016971;28;20219;-76
2022/03/28 03:39:02;;;;;;;41.73;16.20;;;6.00;99.90;;;;;;5524711;22;20228;-76
2022/03/28 03:41:29;;;;;;;34.03;15.90;;;6.00;99.90;;;;;;5012433;28;20296;-77
2022/03/28 03:43:56;;;;;;;42.53;17.40;;;5.90;99.90;;;;;;5010456;28;20227;-75
2022/03/28 03:46:23;;;;;;;43.73;17.53;;;5.90;99.90;;;;;;5010361;28;20221;-76
2022/03/28 03:48:50;;;;;;;34.23;15.40;;;5.90;99.90;;;;;;5004704;28;20237;-75
2022/03/28 03:51:17;;;;;;;40.20;16.97;;;5.80;99.90;;;;;;4998857;28;20205;-76
2022/03/28 03:53:44;;;;;;;37.90;16.10;;;5.80;99.90;;;;;;5033677;23;20323;-82
2022/03/28 03:56:13;;;;;;;38.33;16.90;;;5.80;99.90;;;;;;5073890;28;20215;-83
2022/03/28 03:58:40;;;;;;;35.00;15.50;;;5.80;99.90;;;;;;5047731;28;20303;-83
2022/03/28 04:01:08;;;;;;;35.87;15.80;;;5.80;99.90;;;;;;5040276;28;20215;-82
2022/03/28 04:03:35;;;;;;;34.97;15.63;;;5.80;99.90;;;;;;5035278;28;20246;-82
2022/03/28 04:06:02;;;;;;;37.57;15.87;;;5.80;99.90;;;;;;5049323;28;20213;-84
2022/03/28 04:08:29;;;;;;;35.90;16.90;;;5.90;99.90;;;;;;5032431;28;20279;-84
2022/03/28 04:10:56;;;;;;;37.13;16.20;;;5.90;99.90;;;;;;5029910;28;20217;-84
2022/03/28 04:13:25;;;;;;;36.23;15.70;;;5.80;99.90;;;;;;5037455;28;20209;-84
2022/03/28 04:15:51;;;;;;;35.55;15.30;;;5.80;99.90;;;;;;5036229;28;21616;-84
2022/03/28 04:18:18;;;;;;;35.60;15.73;;;5.70;99.90;;;;;;5038866;28;20583;-84
2022/03/28 04:20:46;;;;;;;40.80;16.03;;;5.70;99.90;;;;;;5045630;28;20830;-84
2022/03/28 04:23:13;;;;;;;42.33;17.20;;;5.70;99.90;;;;;;5045287;28;20229;-83
2022/03/28 04:25:40;;;;;;;36.20;15.37;;;5.70;99.90;;;;;;5048110;28;20223;-83
2022/03/28 04:28:07;;;;;;;36.30;15.40;;;5.70;99.90;;;;;;5032066;28;20239;-86
2022/03/28 04:30:36;;;;;;;36.10;15.17;;;5.70;99.90;;;;;;5036493;28;20278;-87
2022/03/28 04:33:07;;;;;;;36.03;15.50;;;5.60;99.90;;;;;;5052321;28;20738;-87
2022/03/28 04:35:34;;;;;;;38.20;16.23;;;5.60;99.90;;;;;;5035150;28;20298;-87
2022/03/28 04:38:02;;;;;;;44.67;17.07;;;5.60;99.90;;;;;;5032371;28;20235;-87
2022/03/28 04:40:29;;;;;;;37.93;16.10;;;5.60;99.90;;;;;;5033816;28;20225;-86
2022/03/28 04:43:05;;;;;;;35.20;16.00;;;5.50;99.90;;;;;;5033473;28;20845;-87
2022/03/28 04:45:36;;;;;;;35.97;15.83;;;5.60;99.90;;;;;;5035786;28;20216;-87
2022/03/28 04:48:03;;;;;;;38.27;16.77;;;5.50;99.90;;;;;;5037496;28;20275;-87
2022/03/28 04:50:33;;;;;;;42.77;16.97;;;5.50;99.90;;;;;;5041447;28;20205;-87
2022/03/28 04:53:01;;;;;;;37.07;15.10;;;5.50;99.90;;;;;;5037375;28;20642;-87
2022/03/28 04:55:28;;;;;;;41.60;15.83;;;5.40;99.90;;;;;;5040890;28;20216;-87
2022/03/28 04:57:55;;;;;;;33.90;15.47;;;5.40;99.90;;;;;;5040052;28;20236;-86
2022/03/28 05:00:24;;;;;;;39.90;16.43;;;5.40;99.90;;;;;;5036779;28;20277;-87
2022/03/28 05:02:55;;;;;;;43.80;15.73;;;5.40;99.90;;;;;;5041133;28;20245;-87
2022/03/28 05:05:24;;;;;;;35.03;15.40;;;5.40;99.90;;;;;;5031257;28;20212;-87
2022/03/28 05:07:52;;;;;;;38.50;16.40;;;5.70;99.90;;;;;;5034892;28;20256;-86
2022/03/28 05:10:19;;;;;;;38.63;16.13;;;5.30;99.90;;;;;;5057428;28;20219;-87
2022/03/28 05:12:46;;;;;;;33.90;15.03;;;5.30;99.90;;;;;;5048755;28;20220;-86
2022/03/28 05:15:13;;;;;;;41.10;16.10;;;5.30;99.90;;;;;;5041950;28;20263;-86
2022/03/28 05:17:41;;;;;;;41.63;17.23;;;5.30;99.90;;;;;;5054868;28;20209;-88
2022/03/28 05:20:10;;;;;;;43.53;16.93;;;5.30;99.90;;;;;;5040232;28;20205;-87
2022/03/28 05:22:46;;;;;;;45.17;16.20;;;5.30;99.90;;;;;;5030557;28;20222;-86
2022/03/28 05:25:14;;;;;;;47.07;17.37;;;5.40;99.90;;;;;;5030736;28;20225;-86
2022/03/28 05:27:44;;;;;;;44.07;17.43;;;5.40;99.90;;;;;;5038034;28;20313;-83
2022/03/28 05:30:12;;;;;;;44.27;16.90;;;5.40;99.90;;;;;;5038532;28;20214;-83
2022/03/28 05:32:39;;;;;;;41.33;17.90;;;5.50;99.90;;;;;;5035704;28;20291;-83
2022/03/28 05:35:07;;;;;;;40.47;16.97;;;5.50;99.90;;;;;;5018080;28;20206;-83
2022/03/28 05:37:36;;;;;;;42.90;17.90;;;5.60;99.90;;;;;;5048310;28;20215;-84
2022/03/28 05:40:05;;;;;;;41.77;17.63;;;5.60;99.90;;;;;;5058166;28;20208;-83
2022/03/28 05:42:32;;;;;;;36.13;16.03;;;5.70;99.90;;;;;;5041023;28;20213;-83
2022/03/28 05:45:04;;;;;;;36.90;16.20;;;5.80;99.90;;;;;;5039217;28;20678;-84
2022/03/28 05:47:31;;;;;;;42.40;16.93;;;5.90;99.90;;;;;;5033977;28;20206;-84
2022/03/28 05:49:58;;;;;;;40.30;15.90;;;6.10;99.90;;;;;;5049784;28;20217;-84
2022/03/28 05:52:25;;;;;;;47.13;18.00;;;6.40;99.90;;;;;;5034147;28;20241;-85
2022/03/28 05:54:53;;;;;;;40.53;17.33;;;6.50;99.90;;;;;;5046632;28;20228;-84
2022/03/28 05:57:20;;;;;;;39.50;17.63;;;6.40;99.90;;;;;;5032759;28;20210;-85
2022/03/28 05:59:47;;;;;;;41.67;17.20;;;6.70;99.90;;;;;;5032581;28;20241;-84
2022/03/28 06:02:14;;;;;;;42.53;17.57;;;7.40;99.90;;;;;;5031080;28;20204;-83
2022/03/28 06:04:41;;;;;;;31.97;15.73;;;7.60;99.90;;;;;;5024700;28;20289;-83
2022/03/28 06:07:09;;;;;;;33.53;14.93;;;8.10;99.90;;;;;;5028848;28;20237;-83
2022/03/28 06:09:35;;;;;;;26.73;13.93;;;8.50;99.90;;;;;;5024099;28;20230;-83
2022/03/28 06:12:04;;;;;;;26.10;14.30;;;9.00;99.90;;;;;;5032137;28;20233;-84
2022/03/28 06:14:31;;;;;;;31.17;13.60;;;9.40;99.90;;;;;;5038771;28;20331;-84
2022/03/28 06:16:58;;;;;;;;;;;9.90;99.90;;;;;;5030568;28;20053;-84
2022/03/28 06:19:26;;;;;;;;;;;10.40;99.90;;;;;;5034088;28;19988;-84
2022/03/28 06:21:52;;;;;;;;;;;10.80;99.90;;;;;;5019273;28;19921;-84
2022/03/28 06:24:19;;;;;;;;;;;11.30;99.90;;;;;;5041380;28;19993;-85
2022/03/28 06:26:46;;;;;;;31.07;14.33;;;11.80;99.90;;;;;;5037264;28;20216;-85
2022/03/28 06:29:15;;;;;;;28.63;13.90;;;12.40;99.90;;;;;;5032908;28;21044;-87
2022/03/28 06:31:42;;;;;;;28.67;14.33;;;12.90;99.90;;;;;;5026519;28;20295;-87
2022/03/28 06:34:10;;;;;;;29.73;13.93;;;13.50;99.90;;;;;;5035044;28;20917;-87
2022/03/28 06:36:38;;;;;;;26.00;14.43;;;14.00;99.90;;;;;;5041307;28;20209;-86
2022/03/28 06:39:05;;;;;;;23.07;13.27;;;14.60;99.90;;;;;;5047020;28;20275;-85
2022/03/28 06:41:33;;;;;;;28.13;13.53;;;15.40;99.90;;;;;;5028747;28;20315;-85
2022/03/28 06:44:00;;;;;;;26.70;13.33;;;15.40;99.90;;;;;;5026856;28;20230;-86
2022/03/28 06:46:29;;;;;;;21.23;13.43;;;15.90;99.90;;;;;;5023107;28;20748;-85
2022/03/28 06:48:57;;;;;;;27.30;13.47;;;16.20;99.90;;;;;;5047053;28;20229;-85
2022/03/28 06:51:26;;;;;;;22.23;13.40;;;16.80;99.90;;;;;;5021757;28;20245;-86
2022/03/28 06:53:53;;;;;;;24.60;14.07;;;17.40;99.90;;;;;;5021550;28;20573;-85
2022/03/28 06:56:20;;;;;;;22.77;13.77;;;18.00;99.90;;;;;;5034415;28;20206;-85
2022/03/28 06:58:52;;;;;;;21.93;14.47;;;18.60;99.90;;;;;;5028102;28;20915;-86
2022/03/28 07:01:21;;;;;;;23.67;14.67;;;19.10;99.90;;;;;;5035478;28;20206;-86
2022/03/28 07:03:50;;;;;;;20.97;14.07;;;19.70;99.90;;;;;;5048355;28;20291;-85
2022/03/28 07:09:07;;;;;;;23.27;15.63;;;20.40;99.90;;;;;;5031884;28;20302;-87
2022/03/28 07:11:35;;;;;;;23.73;15.07;;;21.00;99.90;;;;;;5030961;28;20206;-85
2022/03/28 07:14:02;;;;;;;29.23;16.73;;;21.50;99.90;;;;;;5031741;28;20654;-87
2022/03/28 07:16:40;;;;;;;24.53;15.40;;;21.90;99.90;;;;;;5045815;28;20210;-86
2022/03/28 07:19:08;;;;;;;24.20;16.27;;;22.10;99.90;;;;;;5023805;28;20229;-86
2022/03/28 07:21:35;;;;;;;26.60;16.73;;;22.30;99.90;;;;;;5043250;28;20213;-86
2022/03/28 07:24:02;;;;;;;24.20;16.43;;;22.70;99.90;;;;;;5040726;28;20277;-86
2022/03/28 07:26:29;;;;;;;23.90;15.30;;;23.00;99.90;;;;;;5039446;28;20202;-87
2022/03/28 07:29:02;;;;;;;23.57;15.70;;;23.40;99.90;;;;;;5032732;28;20225;-86
2022/03/28 07:31:30;;;;;;;21.03;15.77;;;23.80;99.90;;;;;;5033713;28;20238;-87
2022/03/28 07:34:29;;;;;;;24.90;15.77;;;24.00;99.90;;;;;;5022833;28;20494;-86
2022/03/28 07:36:46;;;;;;;22.20;15.10;;;24.10;99.90;;;;;;5037833;28;20215;-86
2022/03/28 07:39:13;;;;;;;21.33;15.30;;;24.20;99.90;;;;;;5041192;28;20363;-85
2022/03/28 07:41:40;;;;;;;;;;;24.40;99.90;;;;;;5050095;28;20063;-87
2022/03/28 07:44:07;;;;;;;;;;;24.70;99.90;;;;;;5026180;28;19964;-87
2022/03/28 07:46:34;;;;;;;;;;;25.00;99.90;;;;;;5035345;28;19929;-86
2022/03/28 07:49:00;;;;;;;;;;;25.30;99.90;;;;;;5023479;28;20265;-86
2022/03/28 07:51:27;;;;;;;;;;;25.40;99.90;;;;;;5023689;28;19928;-87
2022/03/28 07:53:55;;;;;;;;;;;25.30;99.90;;;;;;5032733;28;20342;-87
2022/03/28 07:56:22;;;;;;;;;;;25.30;99.90;;;;;;5038708;28;19928;-87
2022/03/28 07:58:51;;;;;;;;;;;25.40;99.90;;;;;;5029172;28;19925;-87
2022/03/28 08:01:18;;;;;;;21.50;14.77;;;25.70;99.90;;;;;;5026930;28;20200;-87
2022/03/28 08:03:45;;;;;;;25.23;16.20;;;25.90;99.90;;;;;;5026644;28;20233;-86
2022/03/28 08:06:12;;;;;;;22.90;16.23;;;26.00;99.60;;;;;;5033042;28;20208;-86
2022/03/28 08:08:39;;;;;;;22.40;16.47;;;26.10;98.60;;;;;;5037585;28;20252;-87
2022/03/28 08:11:07;;;;;;;22.13;15.90;;;26.20;98.80;;;;;;5028901;28;20659;-87
2022/03/28 08:13:34;;;;;;;26.83;16.87;;;26.10;98.10;;;;;;5036849;28;20220;-87
2022/03/28 08:16:04;;;;;;;25.47;16.30;;;26.20;98.00;;;;;;5024022;28;20210;-87
2022/03/28 08:18:32;;;;;;;30.10;16.93;;;26.20;97.80;;;;;;5038027;28;20259;-87
2022/03/28 08:21:01;;;;;;;24.90;16.70;;;26.00;96.80;;;;;;5052239;28;20213;-87
2022/03/28 08:23:28;;;;;;;27.73;17.37;;;25.90;96.60;;;;;;5048054;28;20258;-86
2022/03/28 08:25:55;;;;;;;29.50;18.23;;;25.70;96.40;;;;;;5049192;28;20218;-86
2022/03/28 08:28:23;;;;;;;26.90;16.60;;;25.50;96.60;;;;;;5022550;28;20244;-86
2022/03/28 08:30:50;;;;;;;28.33;18.63;;;25.40;96.80;;;;;;5030461;28;20264;-87
2022/03/28 08:33:17;;;;;;;24.33;16.37;;;25.20;96.30;;;;;;5021608;28;20319;-86
2022/03/28 08:35:44;;;;;;;25.87;17.03;;;25.10;96.50;;;;;;5017854;28;20197;-86
2022/03/28 08:38:12;;;;;;;27.37;18.70;;;24.90;96.40;;;;;;5046028;28;20229;-86
2022/03/28 08:40:46;;;;;;;27.83;16.93;;;24.90;96.60;;;;;;5029008;28;20259;-87
2022/03/28 08:43:18;;;;;;;24.77;17.80;;;24.90;96.80;;;;;;5039226;28;20239;-86
2022/03/28 08:45:49;;;;;;;25.40;17.30;;;24.90;96.70;;;;;;5027609;28;20535;-87
2022/03/28 08:48:17;;;;;;;26.87;17.77;;;24.90;96.40;;;;;;5040537;28;20649;-86
2022/03/28 08:50:46;;;;;;;24.48;17.77;;;24.80;96.50;;;;;;5021431;28;20210;-86
2022/03/28 08:53:13;;;;;;;25.70;17.75;;;24.80;96.50;;;;;;5032450;28;20232;-86
2022/03/28 08:55:41;;;;;;;27.63;18.35;;;24.80;95.80;;;;;;5023519;28;20210;-86
2022/03/28 08:58:09;;;;;;;23.73;17.38;;;24.70;95.70;;;;;;5045684;28;20318;-87
2022/03/28 09:00:36;;;;;;;33.75;18.52;;;24.30;96.20;;;;;;5045649;28;20224;-86
2022/03/28 09:03:05;;;;;;;24.42;16.67;;;24.40;95.80;;;;;;5060545;28;20189;-86
2022/03/28 09:05:39;;;;;;;26.35;17.17;;;24.30;95.80;;;;;;5055402;28;20189;-86
2022/03/28 09:08:08;;;;;;;23.48;17.23;;;24.30;96.10;;;;;;5044370;28;20284;-85
2022/03/28 09:10:37;;;;;;;23.83;17.42;;;24.20;96.10;;;;;;5055199;28;20222;-86
2022/03/28 09:13:06;;;;;;;24.27;17.58;;;24.30;96.30;;;;;;5031799;28;20206;-87
2022/03/28 09:15:49;;;;;;;26.77;19.33;;;24.40;96.20;;;;;;5047890;28;20709;-86
2022/03/28 09:18:22;;;;;;;23.88;18.77;;;24.40;96.10;;;;;;5037906;28;20233;-86
2022/03/28 09:20:50;;;;;;;30.02;21.02;;;24.30;96.00;;;;;;5025966;28;20622;-86
2022/03/28 09:23:33;;;;;;;29.55;20.27;;;24.10;95.70;;;;;;5028130;28;20305;-86
2022/03/28 09:26:05;;;;;;;32.33;21.75;;;24.10;96.10;;;;;;5029043;28;20209;-86
2022/03/28 09:28:47;;;;;;;31.10;20.83;;;24.00;95.80;;;;;;5022493;28;20706;-86
2022/03/28 09:31:24;;;;;;;33.40;21.83;;;23.80;95.70;;;;;;5017563;28;20700;-86
2022/03/28 09:34:06;;;;;;;35.50;22.30;;;23.30;95.20;;;;;;5030934;28;20207;-86
2022/03/28 09:36:51;;;;;;;31.80;21.43;;;22.10;94.40;;;;;;5044464;28;20243;-85
2022/03/28 09:39:21;;;;;;;35.57;20.37;;;22.00;94.70;;;;;;5048422;28;20231;-86
2022/03/28 09:41:59;;;;;;;37.50;20.97;;;21.50;95.00;;;;;;5045559;28;20232;-86
2022/03/28 09:44:38;;;;;;;36.70;20.93;;;21.00;95.30;;;;;;5048927;28;20241;-86
2022/03/28 09:47:10;;;;;;;33.70;21.03;;;20.80;95.70;;;;;;5048212;28;20292;-86
2022/03/28 09:49:39;;;;;;;33.13;20.20;;;20.40;95.60;;;;;;5044753;28;20237;-87
2022/03/28 09:52:08;;;;;;;37.77;20.27;;;20.40;96.10;;;;;;5034352;28;20261;-86
2022/03/28 09:54:51;;;;;;;31.93;19.93;;;20.20;96.10;;;;;;5030158;28;20688;-86
2022/03/28 09:57:20;;;;;;;32.50;20.07;;;20.00;96.30;;;;;;5022540;28;20289;-87
2022/03/28 09:59:48;;;;;;;37.53;22.00;;;19.80;96.60;;;;;;5039354;28;20241;-87
2022/03/28 10:02:23;;;;;;;35.73;21.03;;;19.70;96.90;;;;;;5025356;28;20202;-86
2022/03/28 10:04:54;;;;;;;37.27;21.67;;;19.50;97.10;;;;;;5045471;28;20226;-85
2022/03/28 10:07:23;;;;;;;35.80;20.63;;;19.50;97.30;;;;;;5047138;28;20237;-87
2022/03/28 10:09:52;;;;;;;38.57;22.53;;;19.50;97.60;;;;;;5033647;28;20237;-86
2022/03/28 10:12:20;;;;;;;34.53;20.13;;;19.60;97.70;;;;;;5028687;28;20278;-86
2022/03/28 10:14:49;;;;;;;33.77;19.47;;;19.60;97.70;;;;;;5027101;28;20614;-86
2022/03/28 10:17:16;;;;;;;35.57;20.70;;;19.60;97.90;;;;;;5028904;28;20669;-86
2022/03/28 10:19:43;;;;;;;31.03;20.00;;;19.50;97.70;;;;;;5024625;28;20233;-86
2022/03/28 10:22:18;;;;;;;36.43;21.13;;;19.50;98.00;;;;;;5020180;28;20649;-87
2022/03/28 10:24:46;;;;;;;35.53;20.87;;;19.50;97.80;;;;;;5032288;28;20228;-86
2022/03/28 10:27:14;;;;;;;29.70;18.07;;;19.40;98.00;;;;;;5029906;28;20265;-86
2022/03/28 10:29:43;;;;;;;;;;;19.40;98.20;;;;;;5031677;28;20609;-86
2022/03/28 10:32:14;;;;;;;;;;;19.50;98.20;;;;;;5040751;28;19971;-85
2022/03/28 10:34:41;;;;;;;;;;;19.70;98.40;;;;;;5018594;28;19928;-85
2022/03/28 10:37:29;;;;;;;;;;;19.80;98.30;;;;;;5044037;28;19964;-85
2022/03/28 10:40:29;;;;;;;;;;;19.90;98.30;;;;;;5019717;28;19925;-85
2022/03/28 10:43:07;;;;;;;;;;;20.00;98.40;;;;;;4951982;28;20002;-84
2022/03/28 10:45:35;;;;;;;;;;;20.20;98.50;;;;;;4968410;28;19930;-86
2022/03/28 10:48:02;;;;;;;;;;;20.20;98.00;;;;;;4999643;28;19988;-86
2022/03/28 10:50:33;;;;;;;;;;;20.20;98.10;;;;;;5053349;28;19929;-85
2022/03/28 10:53:05;;;;;;;;;;;20.20;98.10;;;;;;5026104;28;19921;-85
2022/03/28 10:55:37;;;;;;;;;;;20.10;98.10;;;;;;4984066;28;19930;-85
2022/03/28 10:58:14;;;;;;;;;;;20.00;98.20;;;;;;4990876;28;20716;-85
2022/03/28 11:00:55;;;;;;;;;;;20.00;98.30;;;;;;4989973;28;19922;-85
2022/03/28 11:03:38;;;;;;;;;;;20.20;98.50;;;;;;4987409;28;20057;-85
2022/03/28 11:06:08;;;;;;;;;;;20.40;98.60;;;;;;4965197;28;20387;-85
2022/03/28 11:08:37;;;;;;;;;;;20.70;98.20;;;;;;4988843;28;19926;-85
2022/03/28 11:11:17;;;;;;;;;;;20.50;98.00;;;;;;4972716;28;19952;-86
2022/03/28 11:13:44;;;;;;;;;;;20.50;98.10;;;;;;4973291;28;20012;-86
2022/03/28 11:16:19;;;;;;;;;;;20.60;98.30;;;;;;4974374;28;19922;-86
2022/03/28 11:18:59;;;;;;;;;;;20.70;98.10;;;;;;4995292;28;19922;-85
2022/03/28 11:21:26;;;;;;;;;;;20.90;98.10;;;;;;4982530;28;19922;-85
2022/03/28 11:26:48;;;;;;;;;;;21.30;98.00;;;;;;5098918;27;20070;-71
2022/03/28 11:29:14;;;;;;;;;;;21.40;97.70;;;;;;5088236;28;19951;-71
2022/03/28 11:31:41;;;;;;;;;;;21.50;97.60;;;;;;5081898;28;20427;-71
2022/03/28 11:34:09;;;;;;;;;;;21.60;97.60;;;;;;5087492;28;19924;-71
2022/03/28 11:36:37;;;;;;;;;;;21.70;97.20;;;;;;5087095;28;20305;-71
2022/03/28 11:39:04;;;;;;;;;;;21.70;97.30;;;;;;5083853;28;20022;-71
2022/03/28 11:41:32;;;;;;;;;;;21.70;97.10;;;;;;5081206;28;19928;-71
2022/03/28 11:44:00;;;;;;;;;;;21.70;97.10;;;;;;5083625;28;20359;-71
2022/03/28 11:46:28;;;;;;;;;;;21.80;97.10;;;;;;5084099;28;19928;-71
2022/03/28 11:48:55;;;;;;;;;;;21.80;97.00;;;;;;5084848;28;19935;-69
2022/03/28 11:51:22;;;;;;;;;;;21.90;96.90;;;;;;5089905;28;20001;-71
2022/03/28 11:53:49;;;;;;;;;;;22.00;96.90;;;;;;5087576;28;19973;-70
2022/03/28 11:56:22;;;;;;;;;;;21.90;96.40;;;;;;5089700;28;19935;-69
2022/03/28 11:58:49;;;;;;;;;;;21.80;96.40;;;;;;5082775;28;19935;-69
2022/03/28 12:01:18;;;;;;;;;;;22.00;96.80;;;;;;5088352;28;20016;-70
2022/03/28 12:03:48;;;;;;;;;;;22.10;96.40;;;;;;5082931;28;20365;-69
2022/03/28 12:06:25;;;;;;;;;;;22.20;96.40;;;;;;5079941;28;19929;-70
2022/03/28 12:08:52;;;;;;;;;;;22.30;96.80;;;;;;5080446;28;20304;-71
2022/03/28 12:11:19;;;;;;;;;;;22.60;96.90;;;;;;5084604;28;19982;-71
2022/03/28 12:13:46;;;;;;;;;;;22.70;96.50;;;;;;5091904;28;20011;-71
2022/03/28 12:16:12;;;;;;;;;;;22.80;96.40;;;;;;5091005;28;19977;-70
2022/03/28 12:18:41;;;;;;;;;;;22.90;96.20;;;;;;5089632;28;19928;-70
2022/03/28 12:21:08;;;;;;;;;;;22.90;95.60;;;;;;5079227;28;19925;-70
2022/03/28 12:23:37;;;;;;;;;;;22.90;95.50;;;;;;5081903;28;20393;-71
2022/03/28 12:26:04;;;;;;;;;;;22.80;95.20;;;;;;5082233;28;19928;-70
2022/03/28 12:28:34;;;;;;;;;;;22.80;95.40;;;;;;5080418;28;20434;-71
2022/03/28 12:31:02;;;;;;;;;;;22.80;95.50;;;;;;5078269;28;19982;-70
2022/03/28 12:33:30;;;;;;;;;;;22.90;95.40;;;;;;5080751;28;19935;-69
2022/03/28 12:35:59;;;;;;;;;;;23.10;94.90;;;;;;5082407;28;21065;-70
2022/03/28 12:38:27;;;;;;;;;;;22.90;95.00;;;;;;5068098;28;20415;-69
2022/03/28 12:40:55;;;;;;;;;;;22.80;94.90;;;;;;5062929;28;19963;-70
2022/03/28 12:43:23;;;;;;;;;;;22.70;94.70;;;;;;5065536;28;19928;-70
2022/03/28 12:45:50;;;;;;;;;;;22.60;94.90;;;;;;5066195;28;20422;-70
2022/03/28 12:48:17;;;;;;;;;;;22.60;94.90;;;;;;5067156;28;19924;-70
2022/03/28 12:50:54;;;;;;;;;;;22.50;94.80;;;;;;5064387;28;19929;-69
2022/03/28 12:53:23;;;;;;;;;;;22.50;95.10;;;;;;5064833;28;20405;-70
2022/03/28 12:55:50;;;;;;;;;;;22.50;94.80;;;;;;5059655;28;19928;-70
2022/03/28 12:58:17;;;;;;;;;;;22.40;94.40;;;;;;5060252;28;19953;-70
2022/03/28 13:00:44;;;;;;;;;;;22.20;94.50;;;;;;5070134;28;19982;-70
2022/03/28 13:03:26;;;;;;;;;;;22.20;94.90;;;;;;5072409;28;19933;-70
2022/03/28 13:06:01;;;;;;;;;;;22.30;94.90;;;;;;5067909;28;19931;-70
2022/03/28 13:08:35;;;;;;;;;;;22.30;94.80;;;;;;5069818;28;19928;-70